Station: Ben Nevis  

  Atmospheric Gas Attenuation - ITU Rec 676-11   ----------------- dB/100km -----------------
Date Time Temp RH % AH g/m3 Dew Point Wind Direction Speed kph Gust kph Barometer mB Rainfall Since 9am 24GHz 47GHz 76GHz 122GHz 134GHz 241GHz
08/05 12:30 8.6 99 8.51 8.5 35 54 1013.1 1 19.7 27.3 42.1 110.6 104.0 357.4
08/05 12:20 8.9 99 8.68 8.8 43 59 1013.1 0.8 20.0 27.5 42.7 112.1 106.0 364.4
08/05 12:10 8.9 99 8.68 8.8 43 54 1013.1 0.8 20.0 27.5 42.7 112.1 106.0 364.4
08/05 12:00 8.7 99 8.56 8.6 37 57 1013.1 0.8 19.8 27.4 42.3 111.0 104.6 359.4
08/05 11:50 8.7 99 8.56 8.6 37 52 1013.1 0.8 19.8 27.4 42.3 111.0 104.6 359.4
08/05 11:40 8.6 100 8.6 8.6 33 43 1013.1 0.6 19.8 27.5 42.5 111.6 105.3 361.8
08/05 11:30 8.3 99 8.35 8.2 37 54 1013.1 0.6 19.3 27.1 41.6 109.2 102.1 350.8
08/05 11:20 8.4 99 8.4 8.3 33 44 1013.1 0.6 19.4 27.2 41.8 109.6 102.7 352.8
08/05 11:10 8.3 99 8.35 8.2 39 50 1013.1 0.6 19.3 27.1 41.6 109.2 102.1 350.8
08/05 11:00 8.4 99 8.4 8.3 33 48 1013.1 0.4 19.4 27.2 41.8 109.6 102.7 352.8
08/05 10:50 8.4 100 8.49 8.4 32 39 1013.1 0.4 19.6 27.3 42.1 110.7 104.0 357.3
08/05 10:40 8.4 100 8.49 8.4 30 44 1013.1 0.4 19.6 27.3 42.1 110.7 104.0 357.3
08/05 10:30 8.3 100 8.43 8.3 32 48 1013.1 0.4 19.5 27.3 41.9 110.1 103.3 354.8
08/05 10:20 8.1 100 8.32 8.1 30 39 1013.1 0.4 19.3 27.1 41.6 109.1 102.0 350.3
08/05 10:10 8 100 8.27 8 32 43 1013.1 0.4 19.2 27.1 41.4 108.7 101.4 348.2
08/05 10:00 7.8 100 8.16 7.8 32 54 1013.1 0.4 18.9 26.9 41.0 107.7 100.1 343.7
08/05 09:50 7.7 100 8.11 7.7 30 39 1013.1 0.4 18.8 26.9 40.9 107.3 99.5 341.7
08/05 09:40 7.7 100 8.11 7.7 37 46 1013.1 0.2 18.8 26.9 40.9 107.3 99.5 341.7
08/05 09:30 7.6 100 8.06 7.6 32 56 1013.1 0.2 18.7 26.8 40.7 106.8 99.0 339.6
08/05 09:20 7.6 100 8.06 7.6 28 33 1013.1 0.2 18.7 26.8 40.7 106.8 99.0 339.6
08/05 09:10 7.5 99 7.93 7.4 32 37 1013.1 0.2 18.4 26.6 40.2 105.5 97.3 333.7
08/05 09:00 7.5 100 8.01 7.5 30 48 1013.1 0 18.6 26.8 40.6 106.4 98.4 337.6
08/05 08:50 7.4 100 7.96 7.4 32 43 1013.1 7.6 18.5 26.7 40.4 106.0 97.8 335.6
08/05 08:40 7.4 100 7.96 7.4 30 37 1013.1 7.4 18.5 26.7 40.4 106.0 97.8 335.6
08/05 08:30 7.3 100 7.9 7.3 30 50 1013.1 7.4 18.4 26.7 40.2 105.4 97.1 333.0
08/05 08:20 7.2 100 7.85 7.2 24 32 1013.1 7.4 18.3 26.6 40.0 105.0 96.5 331.0
08/05 08:10 7.2 100 7.85 7.2 37 48 1013.1 7.4 18.3 26.6 40.0 105.0 96.5 331.0
08/05 08:00 7.1 100 7.8 7.1 32 46 1013.1 7.4 18.2 26.5 39.9 104.6 95.9 329.0
08/05 07:50 7.1 100 7.8 7.1 30 37 1013.1 7.2 18.2 26.5 39.9 104.6 95.9 329.0
08/05 07:40 7.1 100 7.8 7.1 33 50 1013.1 7.2 18.2 26.5 39.9 104.6 95.9 329.0
08/05 07:30 7 100 7.75 7 32 54 1013.1 7 18.1 26.5 39.7 104.1 95.4 326.9
08/05 07:20 7 100 7.75 7 32 52 1013.1 7 18.1 26.5 39.7 104.1 95.4 326.9
08/05 07:10 7 100 7.75 7 30 44 1013.1 6.8 18.1 26.5 39.7 104.1 95.4 326.9
08/05 07:00 7 100 7.75 7 35 61 1013.1 6.8 18.1 26.5 39.7 104.1 95.4 326.9
08/05 06:50 6.9 99 7.63 6.8 39 52 1013.1 6.6 17.8 26.3 39.2 102.9 93.8 321.5
08/05 06:40 6.9 100 7.7 6.9 33 44 1013.1 6.6 18.0 26.4 39.5 103.7 94.8 324.9
08/05 06:30 6.8 100 7.65 6.8 41 61 1013.1 6.6 17.9 26.4 39.4 103.3 94.2 322.9
08/05 06:20 7 100 7.75 7 43 63 1013.1 6.6 18.1 26.5 39.7 104.1 95.4 326.9
08/05 06:10 7 99 7.67 6.9 37 46 1013.1 6.4 17.9 26.3 39.4 103.2 94.2 323.0
08/05 06:00 7 99 7.67 6.9 39 57 1013.1 6.4 17.9 26.3 39.4 103.2 94.2 323.0
08/05 05:50 7 99 7.67 6.9 39 56 1013.1 6.4 17.9 26.3 39.4 103.2 94.2 323.0
08/05 05:40 7.1 99 7.72 7 41 50 1013.1 6.2 18.0 26.4 39.5 103.6 94.8 325.0
08/05 05:30 7.1 100 7.8 7.1 41 61 1013.1 6 18.2 26.5 39.9 104.6 95.9 329.0
08/05 05:20 7.2 99 7.78 7.1 48 59 1013.1 6 18.1 26.5 39.7 104.2 95.5 327.6
08/05 05:10 7.2 99 7.78 7.1 33 46 1013.1 6 18.1 26.5 39.7 104.2 95.5 327.6
08/05 05:00 7.3 99 7.83 7.2 35 50 1013.1 5.8 18.2 26.5 39.9 104.6 96.1 329.6
08/05 04:50 7.3 99 7.83 7.2 39 57 1013.1 5.6 18.2 26.5 39.9 104.6 96.1 329.6
08/05 04:40 7.3 99 7.83 7.2 32 39 1013.1 5.4 18.2 26.5 39.9 104.6 96.1 329.6
08/05 04:30 7.3 99 7.83 7.2 35 52 1013.1 5.4 18.2 26.5 39.9 104.6 96.1 329.6
08/05 04:20 7.3 99 7.83 7.2 32 39 1013.1 5.2 18.2 26.5 39.9 104.6 96.1 329.6
08/05 04:10 7.3 99 7.83 7.2 35 52 1013.1 4.8 18.2 26.5 39.9 104.6 96.1 329.6
08/05 04:00 7.3 99 7.83 7.2 37 61 1013.1 4.6 18.2 26.5 39.9 104.6 96.1 329.6
08/05 03:50 7.3 99 7.83 7.2 37 48 1013.1 4.4 18.2 26.5 39.9 104.6 96.1 329.6
08/05 03:40 7.3 99 7.83 7.2 37 54 1013.1 4.4 18.2 26.5 39.9 104.6 96.1 329.6
08/05 03:30 7.2 99 7.78 7.1 37 59 1013.1 4.2 18.1 26.5 39.7 104.2 95.5 327.6
08/05 03:20 7.2 99 7.78 7.1 30 37 1013.1 4.2 18.1 26.5 39.7 104.2 95.5 327.6
08/05 03:10 7.1 99 7.72 7 41 56 1013.1 4 18.0 26.4 39.5 103.6 94.8 325.0
08/05 03:00 7.1 99 7.72 7 37 57 1013.1 4 18.0 26.4 39.5 103.6 94.8 325.0
08/05 02:50 7 99 7.67 6.9 37 48 1013.1 3.8 17.9 26.3 39.4 103.2 94.2 323.0
08/05 02:40 7 99 7.67 6.9 30 46 1013.1 3.6 17.9 26.3 39.4 103.2 94.2 323.0
08/05 02:30 6.9 99 7.63 6.8 35 52 1013.1 3.6 17.8 26.3 39.2 102.9 93.8 321.5
08/05 02:20 6.9 99 7.63 6.8 33 43 1013.1 3.6 17.8 26.3 39.2 102.9 93.8 321.5
08/05 02:10 6.9 99 7.63 6.8 33 41 1013.1 3.6 17.8 26.3 39.2 102.9 93.8 321.5
08/05 02:00 6.9 99 7.63 6.8 37 63 1013.1 3.4 17.8 26.3 39.2 102.9 93.8 321.5
08/05 01:50 6.8 99 7.58 6.7 44 56 1013.1 3.2 17.7 26.3 39.1 102.5 93.2 319.4
08/05 01:40 6.8 99 7.58 6.7 39 54 1013.1 3.2 17.7 26.3 39.1 102.5 93.2 319.4
08/05 01:30 6.8 99 7.58 6.7 39 59 1013.1 3 17.7 26.3 39.1 102.5 93.2 319.4
08/05 01:20 6.7 99 7.53 6.6 30 39 1013.1 3 17.6 26.2 38.9 102.0 92.6 317.4
08/05 01:10 6.7 99 7.53 6.6 35 48 1013.1 2.8 17.6 26.2 38.9 102.0 92.6 317.4
08/05 01:00 6.6 99 7.48 6.5 37 54 1013.1 2.8 17.5 26.1 38.7 101.6 92.1 315.3
08/05 00:50 6.5 99 7.43 6.4 35 48 1013.1 2.6 17.4 26.1 38.6 101.1 91.5 313.3
08/05 00:40 6.5 99 7.43 6.4 35 44 1013.1 2.4 17.4 26.1 38.6 101.1 91.5 313.3
08/05 00:30 6.4 99 7.38 6.3 41 57 1013.1 2.4 17.3 26.0 38.4 100.7 90.9 311.3
08/05 00:20 6.3 99 7.33 6.2 41 54 1013.1 2.2 17.2 26.0 38.3 100.3 90.3 309.2
08/05 00:10 6.3 99 7.33 6.2 41 57 1013.1 2 17.2 26.0 38.3 100.3 90.3 309.2
08/05 00:00 6.3 99 7.33 6.2 35 54 1013.1 2 17.2 26.0 38.3 100.3 90.3 309.2
07/05 23:50 6.2 99 7.28 6.1 37 54 1013.1 1.8 17.1 25.9 38.1 99.8 89.7 307.2
07/05 23:40 6.2 99 7.28 6.1 33 48 1013.1 1.8 17.1 25.9 38.1 99.8 89.7 307.2
07/05 23:30 6.1 99 7.24 6 35 50 1013.1 1.6 17.0 25.9 38.0 99.5 89.3 305.6
07/05 23:20 6.1 99 7.24 6 30 41 1013.1 1.6 17.0 25.9 38.0 99.5 89.3 305.6
07/05 23:10 6 99 7.19 5.9 39 50 1013.1 1.6 16.9 25.8 37.8 99.1 88.7 303.6
07/05 23:00 5.9 99 7.14 5.8 37 59 1013.1 1.4 16.8 25.8 37.6 98.6 88.1 301.5
07/05 22:50 5.9 99 7.14 5.8 46 57 1013.1 1.4 16.8 25.8 37.6 98.6 88.1 301.5
07/05 22:40 5.8 99 7.1 5.7 33 44 1013.1 1.4 16.7 25.7 37.5 98.3 87.7 299.9
07/05 22:30 5.8 99 7.1 5.7 35 59 1013.1 1.4 16.7 25.7 37.5 98.3 87.7 299.9
07/05 22:20 5.7 99 7.05 5.6 35 43 1013.1 1.4 16.6 25.7 37.4 97.9 87.1 297.9
07/05 22:10 5.6 99 7 5.5 30 39 1013.1 1.4 16.5 25.6 37.2 97.4 86.5 295.8
07/05 22:00 5.5 99 6.96 5.4 32 44 1013.1 1.4 16.4 25.6 37.1 97.1 86.1 294.3
07/05 21:50 5.3 99 6.87 5.2 35 48 1013.1 1.4 16.3 25.5 36.8 96.3 85.1 290.6
07/05 21:40 5.1 99 6.78 5 30 35 1013.1 1.4 16.1 25.4 36.5 95.6 84.0 287.0
07/05 21:30 4.9 99 6.69 4.8 30 44 1013.1 1.4 15.9 25.3 36.2 94.8 83.0 283.4
07/05 21:20 4.8 99 6.64 4.7 24 28 1013.1 1.4 15.8 25.2 36.1 94.4 82.4 281.3
07/05 21:10 4.7 99 6.6 4.6 30 37 1013.1 1.4 15.7 25.2 35.9 94.0 82.0 279.7
07/05 21:00 4.6 99 6.56 4.5 30 44 1013.1 1.4 15.6 25.2 35.8 93.7 81.5 278.1
07/05 20:50 4.5 99 6.51 4.4 32 39 1013.1 1.4 15.5 25.1 35.6 93.3 80.9 276.1
07/05 20:40 4.5 99 6.51 4.4 26 32 1013.1 1.4 15.5 25.1 35.6 93.3 80.9 276.1
07/05 20:30 4.5 99 6.51 4.4 32 46 1013.1 1.4 15.5 25.1 35.6 93.3 80.9 276.1
07/05 20:20 4.5 99 6.51 4.4 37 44 1013.1 1.4 15.5 25.1 35.6 93.3 80.9 276.1
07/05 20:10 4.5 99 6.51 4.4 41 50 1013.1 1.4 15.5 25.1 35.6 93.3 80.9 276.1
07/05 20:00 4.4 99 6.47 4.3 33 50 1013.1 1.4 15.4 25.1 35.5 93.0 80.5 274.5

Last Refresh: 08-May-2026 12:07:36

Bureau of Meteorology